Terminal Aerodrome Forecast
Issued by NWS Lake Charles, LA

Home | Current Version | Previous Version | Text Only | Print | Product List | Glossary On
Versions: 1 2 3 4 5 6 7 8 9 10 11 12 13 14 15 16 17 18 19 20 21 22
624
FTUS44 KLCH 291120
TAFLCH
TAF
KLCH 291120Z 2912/3012 15018G25KT P6SM VCSH OVC015
     FM291600 16024G31KT P6SM VCSH OVC020
     FM300700 17021G29KT P6SM VCTS OVC015CB
      TEMPO 3010/3012 1SM +TSRA=

USA.gov is the U.S. government's official web portal to all federal, state and local government web resources and services.